Relevés horaires Bierset (Belgique)


Relevés horaires à Bierset - Samedi 14 Nov. 2020
Heure UTC1 Température [°C] Vent [km/h] Hum. [%] Pres.4 [hPa] Visi. [Km] Nébu. [octa] Préc.5 [mm] Cond.
2m. Res. Ros. Dir.2 Vit. Moy. Raf.3
23:00 13.6 12.4 8.9 S 14.8 14.8 22.2 73 1012.1(-0.6/3h) 30 4/8 -- --
22:00 13.0 11.8 9.0 S 13.0 13.0 18.5 77 1012.5(-0.5/3h) 30 4/8 -- --
21:00 13.0 12.1 8.5 S 11.1 13.0 18.5 74 1012.9(-0.5/3h) 30 5/8 -- --
20:00 13.4 12.5 8.8 S 11.1 11.1 18.5 74 1012.7(-0.9/3h) 30 4/8 -- --
19:00 13.4 12.8 9.1 S 9.3 13.0 18.5 75 1013(-1.0/3h) 30 6/8 -- --
18:00 13.6 12.8 9.3 S 11.1 18.5 25.9 75 1013.4(-1.4/3h) 30 7/8 0/12h
--
17:00 13.2 12.6 9.2 S 9.3 11.1 20.4 77 1013.7(-1.5/3h) 30 5/8 -- --
16:00 13.7 13.2 9.5 S 9.3 11.1 20.4 76 1014(-1.2/3h) 30 5/8 -- --
15:00 14.1 13.4 9.2 S 11.1 18.5 25.9 72 1014.8(-0.8/3h) 25 3/8 -- --
14:00 13.7 12.5 9.2 S 14.8 16.7 25.9 74 1015.2(-1.2/3h) 25 3/8 -- --
13:00 14.4 13.2 8.8 SSO 16.7 18.5 25.9 69 1015.2(-1.6/3h) 25 3/8 -- --
12:00 14.2 13.1 9.2 S 14.8 14.8 24.1 72 1015.5(-1.6/3h) 25 4/8 0/6h
--
11:00 13.5 12.2 9.4 SSO 14.8 14.8 24.1 76 1016.5(-0.8/3h) 25 4/8 -- --
10:00 12.7 11.7 9.2 S 11.1 13.0 24.1 79 1017(0.1/3h) 25 4/8 -- --
09:00 11.7 10.5 8.8 S 11.1 13.0 20.4 82 1017.3(0.4/3h) 25 6/8 -- --
08:00 11.0 9.7 8.7 S 11.1 11.1 18.5 86 1017.5(0.0/3h) 25 4/8 -- --
07:00 11.1 10.1 9.0 S 9.3 11.1 20.4 87 1017.1(-0.2/3h) 20 6/8 -- --
06:00 11.5 10.9 9.5 S 7.4 11.1 16.7 88 1017(-0.8/3h) 20 7/8 0/12h
--
05:00 11.9 11 9.8 S 9.3 11.1 16.7 87 1017.4(-0.3/3h) 20 6/8 -- --
04:00 12.2 11.4 10.2 S 9.3 11.1 14.8 88 1017.2(-0.9/3h) 20 6/8 -- --
03:00 11.9 11.4 10.2 S 7.4 9.3 14.8 89 1017.7(-0.3/3h) 20 7/8 -- --
02:00 12.0 11.5 10.2 S 7.4 7.4 14.8 89 1017.7(-0.3/3h) 20 7/8 -- --
01:00 12.7 12.3 10.6 SSO 7.4 9.3 13.0 87 1018(0.6/3h) 20 7/8 -- --

1 Coordinated Universal Time. Actuellement il est 18:00 locale et 16:00 UTC.

2 Le vent souffle depuis la direction indiquée vers la direction oposée.

3 Les rafales max. sont disponible 40 min après l'heure du relevé.

4 Pour les stations d'altitude (plus de 600m) le géopotentiel du niveau le plus proche de la pression obligatoire est indiqué.

5 Les stations disposant d'un diffuseur peuvent indiquer "trace". Cela signifie que des précipitations ont touchés le sol mais que la quantité est inférieure à 0.1 mm.

Récapitulatif de la journée
Température [°C] Vent [km/h] Ensoleillement4 [h] Precipitations totale5 [mm] Pression [Hpa]
Min1 Max.2 Moy.3 Max. Min Max.
11.4 14.7 12.9 25.9 0 h 0 min 0 1012.1 1018.0

1 Température minimale relevée entre 18:00 UTC la veille et 18:00 UTC le jour donné.

2 Température maximale relevée entre 06:00 UTC le jour donné et 06:00 UTC le lendemain.

3 Vent moyen de la journée basé sur les relevés horaires.

4 Ensoleillement en heures relevé entre 06:00 UTC la veille et 06:00 UTC le jour donné.

5 Précipitations totales tombées entre 06:00 UTC la jour donné et 06:00 UTC le lendemain.

Graphiques horaires